sensor_id;sensor_type;location;lat;lon;timestamp;P1;durP1;ratioP1;P2;durP2;ratioP2
17372;SDS011;8803;48.116;11.590;2023-01-23T00:01:44;23.27;;;17.03;;
17372;SDS011;8803;48.116;11.590;2023-01-23T00:03:49;23.67;;;17.30;;
17372;SDS011;8803;48.116;11.590;2023-01-23T00:05:56;23.67;;;17.17;;
17372;SDS011;8803;48.116;11.590;2023-01-23T00:08:01;26.47;;;17.33;;
17372;SDS011;8803;48.116;11.590;2023-01-23T00:10:05;24.03;;;17.60;;
17372;SDS011;8803;48.116;11.590;2023-01-23T00:12:19;24.10;;;16.37;;
17372;SDS011;8803;48.116;11.590;2023-01-23T00:14:23;22.70;;;16.30;;
17372;SDS011;8803;48.116;11.590;2023-01-23T00:16:27;24.23;;;15.83;;
17372;SDS011;8803;48.116;11.590;2023-01-23T00:18:32;23.90;;;16.30;;
17372;SDS011;8803;48.116;11.590;2023-01-23T00:20:36;23.97;;;16.10;;
17372;SDS011;8803;48.116;11.590;2023-01-23T00:22:49;23.53;;;17.20;;
17372;SDS011;8803;48.116;11.590;2023-01-23T00:24:52;20.43;;;14.80;;
17372;SDS011;8803;48.116;11.590;2023-01-23T00:26:56;22.80;;;15.63;;
17372;SDS011;8803;48.116;11.590;2023-01-23T00:29:00;22.57;;;16.47;;
17372;SDS011;8803;48.116;11.590;2023-01-23T00:31:15;23.43;;;16.97;;
17372;SDS011;8803;48.116;11.590;2023-01-23T00:33:20;22.47;;;16.30;;
17372;SDS011;8803;48.116;11.590;2023-01-23T00:35:24;22.40;;;15.97;;
17372;SDS011;8803;48.116;11.590;2023-01-23T00:37:28;24.07;;;16.77;;
17372;SDS011;8803;48.116;11.590;2023-01-23T00:39:40;22.90;;;15.67;;
17372;SDS011;8803;48.116;11.590;2023-01-23T00:41:46;25.07;;;16.47;;
17372;SDS011;8803;48.116;11.590;2023-01-23T00:43:58;23.70;;;16.40;;
17372;SDS011;8803;48.116;11.590;2023-01-23T00:46:02;21.60;;;15.23;;
17372;SDS011;8803;48.116;11.590;2023-01-23T00:48:06;24.23;;;17.27;;
17372;SDS011;8803;48.116;11.590;2023-01-23T00:50:10;23.17;;;17.00;;
17372;SDS011;8803;48.116;11.590;2023-01-23T00:52:26;20.73;;;16.23;;
17372;SDS011;8803;48.116;11.590;2023-01-23T00:54:30;25.47;;;16.80;;
17372;SDS011;8803;48.116;11.590;2023-01-23T00:56:43;24.97;;;16.87;;
17372;SDS011;8803;48.116;11.590;2023-01-23T00:58:46;21.40;;;15.63;;
17372;SDS011;8803;48.116;11.590;2023-01-23T01:00:50;22.20;;;15.53;;
17372;SDS011;8803;48.116;11.590;2023-01-23T01:02:54;24.93;;;16.27;;
17372;SDS011;8803;48.116;11.590;2023-01-23T01:05:08;24.50;;;17.07;;
17372;SDS011;8803;48.116;11.590;2023-01-23T01:07:12;21.63;;;15.07;;
17372;SDS011;8803;48.116;11.590;2023-01-23T01:09:16;23.77;;;16.17;;
17372;SDS011;8803;48.116;11.590;2023-01-23T01:11:29;26.90;;;17.63;;
17372;SDS011;8803;48.116;11.590;2023-01-23T01:13:33;26.47;;;18.53;;
17372;SDS011;8803;48.116;11.590;2023-01-23T01:15:37;23.87;;;17.10;;
17372;SDS011;8803;48.116;11.590;2023-01-23T01:17:40;22.13;;;15.87;;
17372;SDS011;8803;48.116;11.590;2023-01-23T01:19:53;26.90;;;17.00;;
17372;SDS011;8803;48.116;11.590;2023-01-23T01:24:10;23.00;;;15.87;;
17372;SDS011;8803;48.116;11.590;2023-01-23T01:26:13;23.07;;;16.63;;
17372;SDS011;8803;48.116;11.590;2023-01-23T01:28:28;24.77;;;16.67;;
17372;SDS011;8803;48.116;11.590;2023-01-23T01:30:33;24.07;;;17.03;;
17372;SDS011;8803;48.116;11.590;2023-01-23T01:32:45;25.33;;;16.30;;
17372;SDS011;8803;48.116;11.590;2023-01-23T01:34:50;21.67;;;16.20;;
17372;SDS011;8803;48.116;11.590;2023-01-23T01:36:54;24.20;;;16.20;;
17372;SDS011;8803;48.116;11.590;2023-01-23T01:38:58;23.97;;;16.30;;
17372;SDS011;8803;48.116;11.590;2023-01-23T01:41:01;19.20;;;15.17;;
17372;SDS011;8803;48.116;11.590;2023-01-23T01:43:17;23.07;;;16.40;;
17372;SDS011;8803;48.116;11.590;2023-01-23T01:48:00;23.20;;;16.13;;
17372;SDS011;8803;48.116;11.590;2023-01-23T01:50:04;23.30;;;16.20;;
17372;SDS011;8803;48.116;11.590;2023-01-23T01:52:19;21.23;;;15.07;;
17372;SDS011;8803;48.116;11.590;2023-01-23T01:54:25;23.37;;;16.43;;
17372;SDS011;8803;48.116;11.590;2023-01-23T01:58:45;23.60;;;16.53;;
17372;SDS011;8803;48.116;11.590;2023-01-23T02:00:51;23.33;;;16.50;;
17372;SDS011;8803;48.116;11.590;2023-01-23T02:03:04;23.30;;;17.30;;
17372;SDS011;8803;48.116;11.590;2023-01-23T02:05:09;22.13;;;16.43;;
17372;SDS011;8803;48.116;11.590;2023-01-23T02:07:16;22.07;;;16.13;;
17372;SDS011;8803;48.116;11.590;2023-01-23T02:09:30;24.97;;;17.07;;
17372;SDS011;8803;48.116;11.590;2023-01-23T02:11:34;25.43;;;17.33;;
17372;SDS011;8803;48.116;11.590;2023-01-23T02:13:47;23.67;;;16.77;;
17372;SDS011;8803;48.116;11.590;2023-01-23T02:15:51;25.03;;;17.17;;
17372;SDS011;8803;48.116;11.590;2023-01-23T02:17:55;22.73;;;16.70;;
17372;SDS011;8803;48.116;11.590;2023-01-23T02:20:01;27.10;;;19.00;;
17372;SDS011;8803;48.116;11.590;2023-01-23T02:24:21;24.73;;;17.17;;
17372;SDS011;8803;48.116;11.590;2023-01-23T02:26:27;23.63;;;17.13;;
17372;SDS011;8803;48.116;11.590;2023-01-23T02:28:37;25.40;;;17.37;;
17372;SDS011;8803;48.116;11.590;2023-01-23T02:30:43;25.37;;;18.00;;
17372;SDS011;8803;48.116;11.590;2023-01-23T02:33:08;26.10;;;17.17;;
17372;SDS011;8803;48.116;11.590;2023-01-23T02:35:14;25.20;;;17.07;;
17372;SDS011;8803;48.116;11.590;2023-01-23T02:37:20;24.33;;;16.80;;
17372;SDS011;8803;48.116;11.590;2023-01-23T02:39:25;25.43;;;18.47;;
17372;SDS011;8803;48.116;11.590;2023-01-23T02:41:38;27.33;;;18.40;;
17372;SDS011;8803;48.116;11.590;2023-01-23T02:43:43;25.77;;;19.23;;
17372;SDS011;8803;48.116;11.590;2023-01-23T02:45:48;26.27;;;18.13;;
17372;SDS011;8803;48.116;11.590;2023-01-23T02:47:54;23.90;;;17.27;;
17372;SDS011;8803;48.116;11.590;2023-01-23T02:49:58;26.23;;;18.83;;
17372;SDS011;8803;48.116;11.590;2023-01-23T02:52:10;24.23;;;17.40;;
17372;SDS011;8803;48.116;11.590;2023-01-23T02:54:14;27.07;;;17.30;;
17372;SDS011;8803;48.116;11.590;2023-01-23T02:56:19;26.73;;;18.87;;
17372;SDS011;8803;48.116;11.590;2023-01-23T02:58:23;25.93;;;17.60;;
17372;SDS011;8803;48.116;11.590;2023-01-23T03:00:44;25.87;;;18.93;;
17372;SDS011;8803;48.116;11.590;2023-01-23T03:03:00;23.80;;;17.07;;
17372;SDS011;8803;48.116;11.590;2023-01-23T03:05:06;24.30;;;16.90;;
17372;SDS011;8803;48.116;11.590;2023-01-23T03:07:10;25.10;;;17.80;;
17372;SDS011;8803;48.116;11.590;2023-01-23T03:09:15;23.37;;;17.50;;
17372;SDS011;8803;48.116;11.590;2023-01-23T03:11:19;25.60;;;17.23;;
17372;SDS011;8803;48.116;11.590;2023-01-23T03:13:34;26.70;;;18.23;;
17372;SDS011;8803;48.116;11.590;2023-01-23T03:15:38;23.57;;;17.07;;
17372;SDS011;8803;48.116;11.590;2023-01-23T03:17:52;23.17;;;17.20;;
17372;SDS011;8803;48.116;11.590;2023-01-23T03:19:56;23.20;;;17.43;;
17372;SDS011;8803;48.116;11.590;2023-01-23T03:22:09;23.80;;;16.57;;
17372;SDS011;8803;48.116;11.590;2023-01-23T03:24:13;23.03;;;16.97;;
17372;SDS011;8803;48.116;11.590;2023-01-23T03:26:17;25.17;;;17.20;;
17372;SDS011;8803;48.116;11.590;2023-01-23T03:28:21;25.03;;;17.00;;
17372;SDS011;8803;48.116;11.590;2023-01-23T03:30:43;24.43;;;17.23;;
17372;SDS011;8803;48.116;11.590;2023-01-23T03:32:57;23.70;;;16.80;;
17372;SDS011;8803;48.116;11.590;2023-01-23T03:35:01;23.10;;;15.57;;
17372;SDS011;8803;48.116;11.590;2023-01-23T03:37:14;21.13;;;16.07;;
17372;SDS011;8803;48.116;11.590;2023-01-23T03:41:32;23.23;;;16.40;;
17372;SDS011;8803;48.116;11.590;2023-01-23T03:43:38;21.60;;;15.37;;
17372;SDS011;8803;48.116;11.590;2023-01-23T03:45:41;22.13;;;17.63;;
17372;SDS011;8803;48.116;11.590;2023-01-23T03:47:45;21.70;;;15.80;;
17372;SDS011;8803;48.116;11.590;2023-01-23T03:49:49;22.10;;;15.47;;
17372;SDS011;8803;48.116;11.590;2023-01-23T03:51:53;20.33;;;15.57;;
17372;SDS011;8803;48.116;11.590;2023-01-23T03:53:57;23.00;;;15.47;;
17372;SDS011;8803;48.116;11.590;2023-01-23T03:56:10;21.60;;;16.27;;
17372;SDS011;8803;48.116;11.590;2023-01-23T03:58:14;20.83;;;15.63;;
17372;SDS011;8803;48.116;11.590;2023-01-23T04:00:18;23.90;;;16.97;;
17372;SDS011;8803;48.116;11.590;2023-01-23T04:02:31;23.20;;;16.37;;
17372;SDS011;8803;48.116;11.590;2023-01-23T04:04:35;22.33;;;15.87;;
17372;SDS011;8803;48.116;11.590;2023-01-23T04:06:39;21.97;;;16.10;;
17372;SDS011;8803;48.116;11.590;2023-01-23T04:08:53;24.20;;;17.27;;
17372;SDS011;8803;48.116;11.590;2023-01-23T04:13:13;25.23;;;16.20;;
17372;SDS011;8803;48.116;11.590;2023-01-23T04:17:28;21.03;;;15.60;;
17372;SDS011;8803;48.116;11.590;2023-01-23T04:21:46;22.63;;;14.97;;
17372;SDS011;8803;48.116;11.590;2023-01-23T04:23:50;22.47;;;15.97;;
17372;SDS011;8803;48.116;11.590;2023-01-23T04:26:03;23.97;;;16.77;;
17372;SDS011;8803;48.116;11.590;2023-01-23T04:28:07;23.57;;;17.23;;
17372;SDS011;8803;48.116;11.590;2023-01-23T04:30:11;20.30;;;15.10;;
17372;SDS011;8803;48.116;11.590;2023-01-23T04:32:25;24.27;;;16.87;;
17372;SDS011;8803;48.116;11.590;2023-01-23T04:34:29;23.27;;;16.20;;
17372;SDS011;8803;48.116;11.590;2023-01-23T04:36:33;22.73;;;16.50;;
17372;SDS011;8803;48.116;11.590;2023-01-23T04:38:37;21.67;;;15.73;;
17372;SDS011;8803;48.116;11.590;2023-01-23T04:40:49;21.07;;;15.50;;
17372;SDS011;8803;48.116;11.590;2023-01-23T04:42:54;22.53;;;15.93;;
17372;SDS011;8803;48.116;11.590;2023-01-23T04:45:07;22.77;;;16.57;;
17372;SDS011;8803;48.116;11.590;2023-01-23T04:47:12;20.00;;;15.17;;
17372;SDS011;8803;48.116;11.590;2023-01-23T04:49:28;21.50;;;15.37;;
17372;SDS011;8803;48.116;11.590;2023-01-23T04:51:32;22.47;;;15.40;;
17372;SDS011;8803;48.116;11.590;2023-01-23T04:53:44;24.20;;;17.63;;
17372;SDS011;8803;48.116;11.590;2023-01-23T04:55:48;21.80;;;15.83;;
17372;SDS011;8803;48.116;11.590;2023-01-23T04:57:52;21.13;;;15.47;;
17372;SDS011;8803;48.116;11.590;2023-01-23T04:59:56;20.43;;;15.97;;
17372;SDS011;8803;48.116;11.590;2023-01-23T05:02:10;21.03;;;15.77;;
17372;SDS011;8803;48.116;11.590;2023-01-23T05:04:14;24.40;;;17.97;;
17372;SDS011;8803;48.116;11.590;2023-01-23T05:06:18;20.90;;;15.57;;
17372;SDS011;8803;48.116;11.590;2023-01-23T05:08:22;23.07;;;16.83;;
17372;SDS011;8803;48.116;11.590;2023-01-23T05:10:25;24.30;;;16.97;;
17372;SDS011;8803;48.116;11.590;2023-01-23T05:12:38;22.03;;;15.60;;
17372;SDS011;8803;48.116;11.590;2023-01-23T05:14:42;23.77;;;16.50;;
17372;SDS011;8803;48.116;11.590;2023-01-23T05:17:05;21.30;;;15.90;;
17372;SDS011;8803;48.116;11.590;2023-01-23T05:19:09;21.23;;;16.10;;
17372;SDS011;8803;48.116;11.590;2023-01-23T05:21:21;22.13;;;16.43;;
17372;SDS011;8803;48.116;11.590;2023-01-23T05:23:25;20.37;;;15.83;;
17372;SDS011;8803;48.116;11.590;2023-01-23T05:25:29;19.97;;;15.10;;
17372;SDS011;8803;48.116;11.590;2023-01-23T05:27:33;21.73;;;16.03;;
17372;SDS011;8803;48.116;11.590;2023-01-23T05:29:36;24.27;;;16.73;;
17372;SDS011;8803;48.116;11.590;2023-01-23T05:31:49;22.17;;;16.17;;
17372;SDS011;8803;48.116;11.590;2023-01-23T05:33:53;22.40;;;15.90;;
17372;SDS011;8803;48.116;11.590;2023-01-23T05:35:58;21.13;;;15.47;;
17372;SDS011;8803;48.116;11.590;2023-01-23T05:38:02;24.57;;;18.03;;
17372;SDS011;8803;48.116;11.590;2023-01-23T05:40:06;24.87;;;16.67;;
17372;SDS011;8803;48.116;11.590;2023-01-23T05:42:21;23.40;;;16.57;;
17372;SDS011;8803;48.116;11.590;2023-01-23T05:44:25;21.27;;;16.07;;
17372;SDS011;8803;48.116;11.590;2023-01-23T05:46:28;23.53;;;15.93;;
17372;SDS011;8803;48.116;11.590;2023-01-23T05:48:32;20.13;;;14.90;;
17372;SDS011;8803;48.116;11.590;2023-01-23T05:50:45;20.57;;;15.83;;
17372;SDS011;8803;48.116;11.590;2023-01-23T05:52:49;22.37;;;15.43;;
17372;SDS011;8803;48.116;11.590;2023-01-23T05:55:01;18.27;;;14.57;;
17372;SDS011;8803;48.116;11.590;2023-01-23T05:57:06;19.40;;;14.50;;
17372;SDS011;8803;48.116;11.590;2023-01-23T05:59:11;19.33;;;14.57;;
17372;SDS011;8803;48.116;11.590;2023-01-23T06:01:25;20.03;;;15.00;;
17372;SDS011;8803;48.116;11.590;2023-01-23T06:03:29;19.60;;;14.67;;
17372;SDS011;8803;48.116;11.590;2023-01-23T06:05:33;22.63;;;15.53;;
17372;SDS011;8803;48.116;11.590;2023-01-23T06:07:36;21.57;;;16.00;;
17372;SDS011;8803;48.116;11.590;2023-01-23T06:09:40;20.70;;;14.30;;
17372;SDS011;8803;48.116;11.590;2023-01-23T06:11:54;20.13;;;14.90;;
17372;SDS011;8803;48.116;11.590;2023-01-23T06:13:58;19.80;;;14.03;;
17372;SDS011;8803;48.116;11.590;2023-01-23T06:18:13;18.27;;;14.47;;
17372;SDS011;8803;48.116;11.590;2023-01-23T06:20:17;18.57;;;14.50;;
17372;SDS011;8803;48.116;11.590;2023-01-23T06:22:30;20.07;;;15.20;;
17372;SDS011;8803;48.116;11.590;2023-01-23T06:24:34;22.47;;;15.93;;
17372;SDS011;8803;48.116;11.590;2023-01-23T06:26:38;21.07;;;15.60;;
17372;SDS011;8803;48.116;11.590;2023-01-23T06:28:42;23.53;;;16.50;;
17372;SDS011;8803;48.116;11.590;2023-01-23T06:30:46;19.77;;;15.27;;
17372;SDS011;8803;48.116;11.590;2023-01-23T06:32:58;21.70;;;15.77;;
17372;SDS011;8803;48.116;11.590;2023-01-23T06:35:02;24.83;;;17.33;;
17372;SDS011;8803;48.116;11.590;2023-01-23T06:37:07;22.43;;;16.30;;
17372;SDS011;8803;48.116;11.590;2023-01-23T06:39:12;22.30;;;16.53;;
17372;SDS011;8803;48.116;11.590;2023-01-23T06:41:31;23.23;;;17.07;;
17372;SDS011;8803;48.116;11.590;2023-01-23T06:43:34;22.87;;;16.33;;
17372;SDS011;8803;48.116;11.590;2023-01-23T06:45:42;25.23;;;17.17;;
17372;SDS011;8803;48.116;11.590;2023-01-23T06:47:45;23.57;;;17.80;;
17372;SDS011;8803;48.116;11.590;2023-01-23T06:49:49;23.80;;;17.20;;
17372;SDS011;8803;48.116;11.590;2023-01-23T06:52:02;28.23;;;20.60;;
17372;SDS011;8803;48.116;11.590;2023-01-23T06:54:06;28.47;;;20.10;;
17372;SDS011;8803;48.116;11.590;2023-01-23T06:56:10;31.80;;;20.87;;
17372;SDS011;8803;48.116;11.590;2023-01-23T06:58:14;30.07;;;20.17;;
17372;SDS011;8803;48.116;11.590;2023-01-23T07:00:27;30.43;;;20.10;;
17372;SDS011;8803;48.116;11.590;2023-01-23T07:02:31;34.33;;;22.10;;
17372;SDS011;8803;48.116;11.590;2023-01-23T07:04:45;35.40;;;23.23;;
17372;SDS011;8803;48.116;11.590;2023-01-23T07:06:48;37.90;;;23.27;;
17372;SDS011;8803;48.116;11.590;2023-01-23T07:08:52;40.23;;;23.50;;
17372;SDS011;8803;48.116;11.590;2023-01-23T07:10:56;47.00;;;25.70;;
17372;SDS011;8803;48.116;11.590;2023-01-23T07:13:09;49.17;;;26.47;;
17372;SDS011;8803;48.116;11.590;2023-01-23T07:15:14;40.50;;;23.97;;
17372;SDS011;8803;48.116;11.590;2023-01-23T07:17:26;42.70;;;24.77;;
17372;SDS011;8803;48.116;11.590;2023-01-23T07:21:43;44.53;;;24.27;;
17372;SDS011;8803;48.116;11.590;2023-01-23T07:23:48;43.03;;;24.00;;
17372;SDS011;8803;48.116;11.590;2023-01-23T07:25:57;46.70;;;26.20;;
17372;SDS011;8803;48.116;11.590;2023-01-23T07:28:02;43.20;;;24.23;;
17372;SDS011;8803;48.116;11.590;2023-01-23T07:30:08;45.10;;;25.87;;
17372;SDS011;8803;48.116;11.590;2023-01-23T07:32:12;41.60;;;23.20;;
17372;SDS011;8803;48.116;11.590;2023-01-23T07:34:28;39.30;;;24.50;;
17372;SDS011;8803;48.116;11.590;2023-01-23T07:36:32;37.30;;;22.57;;
17372;SDS011;8803;48.116;11.590;2023-01-23T07:38:45;43.73;;;23.30;;
17372;SDS011;8803;48.116;11.590;2023-01-23T07:40:49;35.27;;;21.60;;
17372;SDS011;8803;48.116;11.590;2023-01-23T07:43:01;41.50;;;23.70;;
17372;SDS011;8803;48.116;11.590;2023-01-23T07:45:06;45.90;;;26.37;;
17372;SDS011;8803;48.116;11.590;2023-01-23T07:47:19;37.53;;;23.30;;
17372;SDS011;8803;48.116;11.590;2023-01-23T07:49:23;44.37;;;24.93;;
17372;SDS011;8803;48.116;11.590;2023-01-23T07:51:36;51.33;;;25.77;;
17372;SDS011;8803;48.116;11.590;2023-01-23T07:53:40;44.33;;;25.23;;
17372;SDS011;8803;48.116;11.590;2023-01-23T07:55:43;41.17;;;25.47;;
17372;SDS011;8803;48.116;11.590;2023-01-23T07:58:00;42.93;;;23.53;;
17372;SDS011;8803;48.116;11.590;2023-01-23T08:00:04;46.20;;;25.60;;
17372;SDS011;8803;48.116;11.590;2023-01-23T08:02:18;43.40;;;24.77;;
17372;SDS011;8803;48.116;11.590;2023-01-23T08:04:21;42.70;;;23.70;;
17372;SDS011;8803;48.116;11.590;2023-01-23T08:06:36;40.50;;;23.93;;
17372;SDS011;8803;48.116;11.590;2023-01-23T08:08:39;36.20;;;21.27;;
17372;SDS011;8803;48.116;11.590;2023-01-23T08:10:43;33.20;;;20.40;;
17372;SDS011;8803;48.116;11.590;2023-01-23T08:12:56;36.90;;;21.20;;
17372;SDS011;8803;48.116;11.590;2023-01-23T08:15:00;36.17;;;21.30;;
17372;SDS011;8803;48.116;11.590;2023-01-23T08:17:04;33.47;;;20.30;;
17372;SDS011;8803;48.116;11.590;2023-01-23T08:19:08;34.13;;;20.97;;
17372;SDS011;8803;48.116;11.590;2023-01-23T08:21:11;36.20;;;20.90;;
17372;SDS011;8803;48.116;11.590;2023-01-23T08:23:24;30.00;;;19.60;;
17372;SDS011;8803;48.116;11.590;2023-01-23T08:25:28;32.03;;;19.63;;
17372;SDS011;8803;48.116;11.590;2023-01-23T08:27:32;32.23;;;19.33;;
17372;SDS011;8803;48.116;11.590;2023-01-23T08:31:49;32.73;;;20.93;;
17372;SDS011;8803;48.116;11.590;2023-01-23T08:33:54;31.17;;;19.57;;
17372;SDS011;8803;48.116;11.590;2023-01-23T08:35:58;28.87;;;17.70;;
17372;SDS011;8803;48.116;11.590;2023-01-23T08:38:02;29.97;;;17.97;;
17372;SDS011;8803;48.116;11.590;2023-01-23T08:40:09;27.37;;;17.17;;
17372;SDS011;8803;48.116;11.590;2023-01-23T08:42:32;32.50;;;18.50;;
17372;SDS011;8803;48.116;11.590;2023-01-23T08:44:36;26.43;;;18.27;;
17372;SDS011;8803;48.116;11.590;2023-01-23T08:46:40;27.10;;;17.93;;
17372;SDS011;8803;48.116;11.590;2023-01-23T08:48:53;26.73;;;16.73;;
17372;SDS011;8803;48.116;11.590;2023-01-23T08:51:00;27.60;;;18.13;;
17372;SDS011;8803;48.116;11.590;2023-01-23T08:53:13;25.03;;;17.07;;
17372;SDS011;8803;48.116;11.590;2023-01-23T08:55:17;29.27;;;18.63;;
17372;SDS011;8803;48.116;11.590;2023-01-23T08:57:20;27.90;;;18.03;;
17372;SDS011;8803;48.116;11.590;2023-01-23T08:59:24;25.17;;;17.07;;
17372;SDS011;8803;48.116;11.590;2023-01-23T09:01:37;25.13;;;17.77;;
17372;SDS011;8803;48.116;11.590;2023-01-23T09:03:41;28.23;;;17.63;;
17372;SDS011;8803;48.116;11.590;2023-01-23T09:05:54;26.03;;;17.77;;
17372;SDS011;8803;48.116;11.590;2023-01-23T09:08:02;28.07;;;17.93;;
17372;SDS011;8803;48.116;11.590;2023-01-23T09:10:07;26.87;;;16.93;;
17372;SDS011;8803;48.116;11.590;2023-01-23T09:12:21;27.47;;;17.70;;
17372;SDS011;8803;48.116;11.590;2023-01-23T09:14:25;23.87;;;16.20;;
17372;SDS011;8803;48.116;11.590;2023-01-23T09:16:28;24.10;;;15.90;;
17372;SDS011;8803;48.116;11.590;2023-01-23T09:18:32;26.23;;;18.17;;
17372;SDS011;8803;48.116;11.590;2023-01-23T09:20:37;27.37;;;17.60;;
17372;SDS011;8803;48.116;11.590;2023-01-23T09:22:49;27.17;;;16.93;;
17372;SDS011;8803;48.116;11.590;2023-01-23T09:24:53;27.73;;;18.20;;
17372;SDS011;8803;48.116;11.590;2023-01-23T09:26:57;24.37;;;17.07;;
17372;SDS011;8803;48.116;11.590;2023-01-23T09:29:01;26.37;;;17.97;;
17372;SDS011;8803;48.116;11.590;2023-01-23T09:31:06;27.70;;;18.43;;
17372;SDS011;8803;48.116;11.590;2023-01-23T09:33:21;25.83;;;18.00;;
17372;SDS011;8803;48.116;11.590;2023-01-23T09:35:26;25.10;;;17.23;;
17372;SDS011;8803;48.116;11.590;2023-01-23T09:37:30;23.57;;;16.77;;
17372;SDS011;8803;48.116;11.590;2023-01-23T09:39:36;25.80;;;17.50;;
17372;SDS011;8803;48.116;11.590;2023-01-23T09:41:51;23.40;;;16.50;;
17372;SDS011;8803;48.116;11.590;2023-01-23T09:43:56;25.47;;;18.23;;
17372;SDS011;8803;48.116;11.590;2023-01-23T09:46:06;20.97;;;15.97;;
17372;SDS011;8803;48.116;11.590;2023-01-23T09:48:19;25.70;;;17.57;;
17372;SDS011;8803;48.116;11.590;2023-01-23T09:50:26;24.87;;;17.13;;
17372;SDS011;8803;48.116;11.590;2023-01-23T09:52:43;24.70;;;17.87;;
17372;SDS011;8803;48.116;11.590;2023-01-23T09:54:49;26.67;;;18.10;;
17372;SDS011;8803;48.116;11.590;2023-01-23T09:57:03;23.80;;;17.43;;
17372;SDS011;8803;48.116;11.590;2023-01-23T09:59:11;25.03;;;17.53;;
17372;SDS011;8803;48.116;11.590;2023-01-23T10:01:26;23.37;;;16.53;;
17372;SDS011;8803;48.116;11.590;2023-01-23T10:03:32;21.97;;;16.47;;
17372;SDS011;8803;48.116;11.590;2023-01-23T10:05:38;25.13;;;18.77;;
17372;SDS011;8803;48.116;11.590;2023-01-23T10:07:54;20.70;;;15.23;;
17372;SDS011;8803;48.116;11.590;2023-01-23T10:10:13;24.27;;;16.97;;
17372;SDS011;8803;48.116;11.590;2023-01-23T10:12:31;27.67;;;17.90;;
17372;SDS011;8803;48.116;11.590;2023-01-23T10:14:42;23.97;;;16.33;;
17372;SDS011;8803;48.116;11.590;2023-01-23T10:16:55;26.33;;;17.83;;
17372;SDS011;8803;48.116;11.590;2023-01-23T10:19:16;22.70;;;15.67;;
17372;SDS011;8803;48.116;11.590;2023-01-23T10:21:26;24.40;;;16.57;;
17372;SDS011;8803;48.116;11.590;2023-01-23T10:23:40;23.60;;;16.53;;
17372;SDS011;8803;48.116;11.590;2023-01-23T10:26:01;24.13;;;16.80;;
17372;SDS011;8803;48.116;11.590;2023-01-23T10:28:13;26.17;;;16.97;;
17372;SDS011;8803;48.116;11.590;2023-01-23T10:30:24;27.93;;;17.97;;
17372;SDS011;8803;48.116;11.590;2023-01-23T10:32:39;26.10;;;18.23;;
17372;SDS011;8803;48.116;11.590;2023-01-23T10:34:45;29.90;;;19.77;;
17372;SDS011;8803;48.116;11.590;2023-01-23T10:36:57;24.27;;;17.80;;
17372;SDS011;8803;48.116;11.590;2023-01-23T10:39:11;25.00;;;17.17;;
17372;SDS011;8803;48.116;11.590;2023-01-23T10:41:17;29.13;;;19.30;;
17372;SDS011;8803;48.116;11.590;2023-01-23T10:43:31;29.27;;;19.43;;
17372;SDS011;8803;48.116;11.590;2023-01-23T10:45:36;29.87;;;19.53;;
17372;SDS011;8803;48.116;11.590;2023-01-23T10:47:49;32.03;;;20.10;;
17372;SDS011;8803;48.116;11.590;2023-01-23T10:52:14;26.37;;;18.80;;
17372;SDS011;8803;48.116;11.590;2023-01-23T10:54:27;27.47;;;18.80;;
17372;SDS011;8803;48.116;11.590;2023-01-23T10:56:31;30.73;;;19.43;;
17372;SDS011;8803;48.116;11.590;2023-01-23T10:58:37;30.03;;;20.03;;
17372;SDS011;8803;48.116;11.590;2023-01-23T11:00:54;31.53;;;19.37;;
17372;SDS011;8803;48.116;11.590;2023-01-23T11:02:59;33.83;;;21.30;;
17372;SDS011;8803;48.116;11.590;2023-01-23T11:05:34;51.07;;;24.93;;
17372;SDS011;8803;48.116;11.590;2023-01-23T11:07:39;36.60;;;21.47;;
17372;SDS011;8803;48.116;11.590;2023-01-23T11:09:55;29.50;;;19.77;;
17372;SDS011;8803;48.116;11.590;2023-01-23T11:12:01;31.47;;;20.10;;
17372;SDS011;8803;48.116;11.590;2023-01-23T11:14:19;30.77;;;19.83;;
17372;SDS011;8803;48.116;11.590;2023-01-23T11:18:39;27.27;;;19.37;;
17372;SDS011;8803;48.116;11.590;2023-01-23T11:20:42;33.03;;;21.17;;
17372;SDS011;8803;48.116;11.590;2023-01-23T11:22:59;33.50;;;21.47;;
17372;SDS011;8803;48.116;11.590;2023-01-23T11:25:25;31.70;;;19.40;;
17372;SDS011;8803;48.116;11.590;2023-01-23T11:27:31;31.63;;;20.17;;
17372;SDS011;8803;48.116;11.590;2023-01-23T11:29:47;31.23;;;20.47;;
17372;SDS011;8803;48.116;11.590;2023-01-23T11:32:03;28.10;;;18.97;;
17372;SDS011;8803;48.116;11.590;2023-01-23T11:34:10;30.37;;;19.93;;
17372;SDS011;8803;48.116;11.590;2023-01-23T11:36:25;30.13;;;20.40;;
17372;SDS011;8803;48.116;11.590;2023-01-23T11:38:40;29.03;;;18.50;;
17372;SDS011;8803;48.116;11.590;2023-01-23T11:40:47;28.70;;;20.00;;
17372;SDS011;8803;48.116;11.590;2023-01-23T11:43:04;28.00;;;19.50;;
17372;SDS011;8803;48.116;11.590;2023-01-23T11:45:13;28.00;;;19.30;;
17372;SDS011;8803;48.116;11.590;2023-01-23T11:47:41;27.63;;;18.33;;
17372;SDS011;8803;48.116;11.590;2023-01-23T11:50:08;28.17;;;19.20;;
17372;SDS011;8803;48.116;11.590;2023-01-23T11:52:28;26.77;;;18.13;;
17372;SDS011;8803;48.116;11.590;2023-01-23T11:54:41;26.73;;;18.93;;
17372;SDS011;8803;48.116;11.590;2023-01-23T11:57:00;26.00;;;18.33;;
17372;SDS011;8803;48.116;11.590;2023-01-23T11:59:10;31.37;;;20.13;;
17372;SDS011;8803;48.116;11.590;2023-01-23T12:01:38;27.77;;;19.30;;
17372;SDS011;8803;48.116;11.590;2023-01-23T12:03:52;26.83;;;18.97;;
17372;SDS011;8803;48.116;11.590;2023-01-23T12:06:13;25.23;;;17.87;;
17372;SDS011;8803;48.116;11.590;2023-01-23T12:08:33;31.37;;;20.50;;
17372;SDS011;8803;48.116;11.590;2023-01-23T12:10:43;26.57;;;18.33;;
17372;SDS011;8803;48.116;11.590;2023-01-23T12:15:24;28.00;;;19.80;;
17372;SDS011;8803;48.116;11.590;2023-01-23T12:17:33;24.47;;;18.00;;
17372;SDS011;8803;48.116;11.590;2023-01-23T12:19:52;26.93;;;18.57;;
17372;SDS011;8803;48.116;11.590;2023-01-23T12:22:03;26.47;;;18.53;;
17372;SDS011;8803;48.116;11.590;2023-01-23T12:24:18;27.17;;;19.10;;
17372;SDS011;8803;48.116;11.590;2023-01-23T12:26:25;26.60;;;18.77;;
17372;SDS011;8803;48.116;11.590;2023-01-23T12:29:03;25.00;;;17.23;;
17372;SDS011;8803;48.116;11.590;2023-01-23T12:31:25;27.97;;;18.60;;
17372;SDS011;8803;48.116;11.590;2023-01-23T12:33:57;27.87;;;18.70;;
17372;SDS011;8803;48.116;11.590;2023-01-23T12:36:23;25.63;;;16.83;;
17372;SDS011;8803;48.116;11.590;2023-01-23T12:38:34;25.07;;;17.23;;
17372;SDS011;8803;48.116;11.590;2023-01-23T12:42:52;26.93;;;18.37;;
17372;SDS011;8803;48.116;11.590;2023-01-23T12:44:59;24.57;;;16.57;;
17372;SDS011;8803;48.116;11.590;2023-01-23T12:47:07;29.00;;;17.93;;
17372;SDS011;8803;48.116;11.590;2023-01-23T12:49:22;23.30;;;16.93;;
17372;SDS011;8803;48.116;11.590;2023-01-23T12:51:29;23.90;;;16.70;;
17372;SDS011;8803;48.116;11.590;2023-01-23T12:53:36;23.97;;;17.07;;
17372;SDS011;8803;48.116;11.590;2023-01-23T12:55:54;24.50;;;17.03;;
17372;SDS011;8803;48.116;11.590;2023-01-23T12:58:01;28.77;;;19.33;;
17372;SDS011;8803;48.116;11.590;2023-01-23T13:00:07;24.10;;;17.53;;
17372;SDS011;8803;48.116;11.590;2023-01-23T13:02:23;22.47;;;17.37;;
17372;SDS011;8803;48.116;11.590;2023-01-23T13:04:38;24.67;;;17.30;;
17372;SDS011;8803;48.116;11.590;2023-01-23T13:06:55;25.30;;;18.63;;